Time;durP1;ratioP1;P1;durP2;ratioP2;P2;SDS_P1;SDS_P2;PMS_P1;PMS_P2;Temp;Humidity;BMP_temperature;BMP_pressure;BME280_temperature;BME280_humidity;BME280_pressure;Samples;Min_cycle;Max_cycle;Signal;HPM_P1;HPM_P2
2021/05/02 00:01:55;;;;;;;22.20;18.00;;;;;;;6.55;100.00;100518.59;5002976;28;20752;-76
2021/05/02 00:04:23;;;;;;;22.00;17.43;;;;;;;6.57;100.00;100508.41;4998374;28;20184;-76
2021/05/02 00:06:49;;;;;;;20.00;16.70;;;;;;;6.49;100.00;100512.59;5029059;28;20245;-76
2021/05/02 00:09:19;;;;;;;19.80;17.13;;;;;;;6.44;100.00;100510.63;5039168;28;20266;-76
2021/05/02 00:11:50;;;;;;;20.33;17.73;;;;;;;6.51;100.00;100512.09;5021600;28;20231;-76
2021/05/02 00:14:20;;;;;;;21.50;18.50;;;;;;;6.52;100.00;100508.34;5023536;28;20178;-76
2021/05/02 00:16:45;;;;;;;25.70;20.03;;;;;;;6.53;100.00;100509.13;4990513;28;20242;-75
2021/05/02 00:19:13;;;;;;;27.03;22.00;;;;;;;6.57;100.00;100510.28;5018238;28;20184;-77
2021/05/02 00:21:41;;;;;;;26.97;20.27;;;;;;;6.82;100.00;100510.59;5029828;28;20704;-76
2021/05/02 00:24:07;;;;;;;23.43;19.40;;;;;;;6.83;100.00;100502.25;5021334;28;20183;-76
2021/05/02 00:26:37;;;;;;;26.43;20.43;;;;;;;6.68;100.00;100506.63;5021270;28;20614;-76
2021/05/02 00:29:02;;;;;;;23.83;20.03;;;;;;;6.57;100.00;100504.88;5022269;28;20558;-77
2021/05/02 00:31:28;;;;;;;23.03;19.93;;;;;;;6.42;100.00;100510.06;5009387;28;20223;-76
2021/05/02 00:33:58;;;;;;;23.27;19.93;;;;;;;6.24;100.00;100509.53;4997178;28;20196;-76
2021/05/02 00:36:26;;;;;;;22.00;19.37;;;;;;;6.18;100.00;100505.13;5063255;28;20246;-76
2021/05/02 00:38:52;;;;;;;22.13;19.07;;;;;;;6.10;100.00;100502.03;5020932;28;20191;-76
2021/05/02 00:41:22;;;;;;;23.40;19.63;;;;;;;6.02;100.00;100500.56;5027257;28;20227;-76
2021/05/02 00:43:57;;;;;;;24.80;20.57;;;;;;;6.24;100.00;100498.75;5000739;28;20191;-76
2021/05/02 00:46:52;;;;;;;23.90;20.30;;;;;;;6.01;100.00;100508.94;5044615;28;20331;-76
2021/05/02 00:49:29;;;;;;;21.47;17.77;;;;;;;6.13;100.00;100504.25;5053924;28;20189;-75
2021/05/02 00:51:59;;;;;;;22.13;17.70;;;;;;;6.19;100.00;100504.06;5005563;28;20770;-76
2021/05/02 00:54:33;;;;;;;20.93;16.13;;;;;;;6.25;100.00;100503.09;5019291;28;20172;-75
2021/05/02 00:57:08;;;;;;;21.10;18.07;;;;;;;6.26;100.00;100504.72;5033422;28;20218;-77
2021/05/02 00:59:56;;;;;;;26.00;19.47;;;;;;;6.22;100.00;100501.69;5021069;28;20724;-76
2021/05/02 01:02:24;;;;;;;31.77;20.07;;;;;;;6.22;100.00;100500.88;5001486;28;20227;-76
2021/05/02 01:04:50;;;;;;;37.93;22.00;;;;;;;6.27;100.00;100503.66;5017862;28;20241;-76
2021/05/02 01:07:20;;;;;;;30.23;21.17;;;;;;;6.23;100.00;100502.53;5018066;28;20592;-76
2021/05/02 01:09:48;;;;;;;24.77;18.70;;;;;;;6.16;100.00;100496.47;5036727;28;20329;-76
2021/05/02 01:12:16;;;;;;;20.73;16.43;;;;;;;6.10;100.00;100502.88;5018553;28;20223;-76
2021/05/02 01:14:52;;;;;;;20.90;16.47;;;;;;;5.89;100.00;100506.28;5000116;28;20318;-76
2021/05/02 01:17:18;;;;;;;21.57;16.50;;;;;;;5.73;100.00;100505.50;5018575;28;20283;-77
2021/05/02 01:19:46;;;;;;;19.07;15.87;;;;;;;5.61;100.00;100504.72;5020327;28;20187;-77
2021/05/02 01:22:15;;;;;;;20.67;16.77;;;;;;;5.29;100.00;100503.59;5018562;28;20215;-77
2021/05/02 01:24:48;;;;;;;19.97;16.33;;;;;;;5.29;100.00;100509.00;5016967;28;20619;-76
2021/05/02 01:27:28;;;;;;;22.37;17.40;;;;;;;5.27;100.00;100505.72;5050697;28;20226;-76
2021/05/02 01:29:54;;;;;;;23.40;18.23;;;;;;;5.49;100.00;100501.28;5021888;28;20178;-76
2021/05/02 01:32:25;;;;;;;24.93;19.03;;;;;;;5.19;100.00;100506.13;5048603;28;20234;-76
2021/05/02 01:34:53;;;;;;;27.80;20.03;;;;;;;5.10;100.00;100504.88;5051054;28;20183;-77
2021/05/02 01:37:19;;;;;;;25.47;19.73;;;;;;;5.28;100.00;100507.38;5033741;28;20298;-76
2021/05/02 01:39:48;;;;;;;27.67;20.37;;;;;;;5.28;100.00;100496.59;5016970;28;20611;-76
2021/05/02 01:42:13;;;;;;;25.93;19.47;;;;;;;5.32;100.00;100496.94;5049325;28;20219;-77
2021/05/02 01:44:42;;;;;;;25.17;19.23;;;;;;;5.39;100.00;100493.03;5019603;28;20190;-76
2021/05/02 01:47:15;;;;;;;24.13;18.70;;;;;;;5.44;100.00;100498.53;5019407;28;20587;-76
2021/05/02 01:50:01;;;;;;;24.97;17.50;;;;;;;5.37;100.00;100500.53;5016930;28;20188;-76
2021/05/02 01:52:27;;;;;;;22.43;18.37;;;;;;;5.56;100.00;100494.66;5035116;28;20573;-76
2021/05/02 01:54:54;;;;;;;24.10;19.17;;;;;;;5.56;100.00;100500.06;5035919;28;20194;-76
2021/05/02 01:57:25;;;;;;;21.00;16.87;;;;;;;5.47;100.00;100500.69;5019559;28;20350;-76
2021/05/02 01:59:53;;;;;;;22.23;17.10;;;;;;;5.42;100.00;100501.44;5020074;28;20179;-76
2021/05/02 02:02:19;;;;;;;22.50;18.77;;;;;;;5.49;100.00;100501.28;5017689;28;20616;-76
2021/05/02 02:04:49;;;;;;;21.27;17.27;;;;;;;5.46;100.00;100501.78;5016817;28;20214;-76
2021/05/02 02:07:15;;;;;;;20.93;16.80;;;;;;;5.43;100.00;100499.56;5033997;28;20649;-76
2021/05/02 02:09:41;;;;;;;19.77;16.93;;;;;;;5.43;100.00;100499.56;5019381;28;20216;-76
2021/05/02 02:12:09;;;;;;;19.00;16.40;;;;;;;5.34;100.00;100509.09;5034913;28;20698;-76
2021/05/02 02:14:37;;;;;;;19.20;15.87;;;;;;;5.41;100.00;100513.25;4999919;28;20689;-76
2021/05/02 02:17:04;;;;;;;21.17;17.37;;;;;;;5.48;100.00;100507.75;5045543;28;20708;-75
2021/05/02 02:19:30;;;;;;;18.43;16.03;;;;;;;5.35;100.00;100518.81;5035631;28;20182;-77
2021/05/02 02:21:56;;;;;;;19.23;16.13;;;;;;;5.37;100.00;100527.47;5003228;28;20227;-76
2021/05/02 02:24:40;;;;;;;18.87;16.30;;;;;;;5.36;100.00;100515.84;5000302;28;20274;-75
2021/05/02 02:27:06;;;;;;;18.73;16.17;;;;;;;5.30;100.00;100516.03;5048685;28;20234;-77
2021/05/02 02:29:34;;;;;;;20.03;16.77;;;;;;;5.30;100.00;100516.03;5032656;28;20187;-76
2021/05/02 02:32:04;;;;;;;18.30;16.07;;;;;;;5.28;100.00;100522.72;5018866;28;20618;-76
2021/05/02 02:34:29;;;;;;;24.80;17.33;;;;;;;5.19;100.00;100519.59;5019559;28;20179;-77
2021/05/02 02:36:55;;;;;;;19.90;16.97;;;;;;;5.28;100.00;100523.53;5019534;28;20254;-77
2021/05/02 02:39:23;;;;;;;20.60;17.33;;;;;;;5.21;100.00;100519.34;5000021;28;20188;-76
2021/05/02 02:41:51;;;;;;;21.00;17.17;;;;;;;5.27;100.00;100527.25;5015160;28;20724;-77
2021/05/02 02:44:18;;;;;;;19.93;16.67;;;;;;;5.36;100.00;100525.81;5000173;28;20187;-77
2021/05/02 02:46:50;;;;;;;21.53;17.60;;;;;;;5.41;100.00;100526.72;5012777;28;20253;-77
2021/05/02 02:49:15;;;;;;;21.20;17.03;;;;;;;5.45;100.00;100519.78;5019244;28;20568;-76
2021/05/02 02:51:41;;;;;;;21.70;17.17;;;;;;;5.36;100.00;100523.13;5005236;28;20223;-77
2021/05/02 02:54:09;;;;;;;22.13;17.20;;;;;;;5.46;100.00;100523.31;4999327;28;20198;-76
2021/05/02 02:56:37;;;;;;;23.90;18.23;;;;;;;5.51;100.00;100526.09;5043981;28;20226;-77
2021/05/02 02:59:10;;;;;;;22.13;17.30;;;;;;;5.54;100.00;100514.84;5036855;28;20735;-76
2021/05/02 03:01:42;;;;;;;22.57;17.73;;;;;;;5.56;100.00;100521.59;5023205;28;20246;-77
2021/05/02 03:04:10;;;;;;;22.17;17.40;;;;;;;5.38;100.00;100518.31;5015931;28;20883;-77
2021/05/02 03:06:35;;;;;;;23.03;18.57;;;;;;;5.48;100.00;100515.81;5043964;28;20234;-77
2021/05/02 03:09:04;;;;;;;25.90;18.87;;;;;;;5.45;100.00;100524.38;5019180;28;20675;-76
2021/05/02 03:11:32;;;;;;;25.60;18.97;;;;;;;5.41;100.00;100523.22;5007094;28;20219;-77
2021/05/02 03:14:00;;;;;;;27.10;19.37;;;;;;;5.37;100.00;100519.38;5015612;28;20254;-76
2021/05/02 03:16:28;;;;;;;26.70;20.23;;;;;;;5.44;100.00;100525.44;5042450;28;20359;-76
2021/05/02 03:19:23;;;;;;;25.80;19.70;;;;;;;5.36;100.00;100520.44;5018959;28;20229;-77
2021/05/02 03:21:55;;;;;;;26.40;19.77;;;;;;;5.34;100.00;100523.34;5019685;28;20314;-76
2021/05/02 03:24:34;;;;;;;28.03;20.30;;;;;;;5.16;100.00;100522.75;5031956;28;20187;-76
2021/05/02 03:27:06;;;;;;;25.80;19.33;;;;;;;5.22;100.00;100519.13;5014523;28;20264;-77
2021/05/02 03:29:37;;;;;;;24.73;19.53;;;;;;;5.18;100.00;100527.88;5019298;28;20645;-77
2021/05/02 03:32:05;;;;;;;25.23;20.30;;;;;;;5.21;100.00;100528.22;5017925;28;20275;-76
2021/05/02 03:34:33;;;;;;;26.00;20.27;;;;;;;5.27;100.00;100523.75;4999279;28;20188;-77
2021/05/02 03:37:01;;;;;;;25.70;20.53;;;;;;;5.18;100.00;100528.72;5032332;28;20302;-76
2021/05/02 03:39:33;;;;;;;25.00;20.10;;;;;;;5.20;100.00;100526.63;5038557;28;20190;-76
2021/05/02 03:42:03;;;;;;;25.03;18.90;;;;;;;5.17;100.00;100527.09;5020952;28;20244;-77
2021/05/02 03:44:33;;;;;;;26.40;20.40;;;;;;;5.26;100.00;100525.66;5056227;28;20191;-76
2021/05/02 03:46:59;;;;;;;25.20;20.00;;;;;;;5.17;100.00;100531.66;5022216;28;20870;-76
2021/05/02 03:49:24;;;;;;;24.83;19.77;;;;;;;5.15;100.00;100534.59;5002535;28;20194;-78
2021/05/02 03:51:55;;;;;;;22.67;18.57;;;;;;;5.14;100.00;100527.56;5048026;28;20235;-75
2021/05/02 03:54:20;;;;;;;24.67;18.47;;;;;;;5.08;100.00;100531.22;5023011;28;20215;-75
2021/05/02 03:56:46;;;;;;;23.57;19.40;;;;;;;5.13;100.00;100536.69;5051295;28;20221;-76
2021/05/02 03:59:15;;;;;;;27.17;21.63;;;;;;;5.34;100.00;100546.78;5035041;28;20195;-77
2021/05/02 04:01:44;;;;;;;32.67;23.60;;;;;;;5.58;100.00;100540.22;5025224;28;20717;-76
2021/05/02 04:04:17;;;;;;;34.83;25.23;;;;;;;5.62;100.00;100541.38;5018688;28;20257;-77
2021/05/02 04:06:44;;;;;;;31.90;23.77;;;;;;;5.57;100.00;100544.00;5028594;28;20238;-76
2021/05/02 04:09:16;;;;;;;31.57;23.30;;;;;;;5.69;100.00;100542.03;5004428;28;20172;-77
2021/05/02 04:11:46;;;;;;;29.70;22.53;;;;;;;5.68;100.00;100545.78;4990289;28;20231;-77
2021/05/02 04:14:12;;;;;;;31.00;23.73;;;;;;;5.75;100.00;100542.72;5015661;28;20184;-76
2021/05/02 04:16:41;;;;;;;30.53;23.57;;;;;;;5.90;100.00;100548.38;5010707;28;20229;-75
2021/05/02 04:19:07;;;;;;;30.07;23.87;;;;;;;5.96;100.00;100550.06;5034981;28;20619;-76
2021/05/02 04:21:38;;;;;;;36.67;25.13;;;;;;;5.84;100.00;100549.34;5017703;28;20223;-76
2021/05/02 04:24:07;;;;;;;32.57;24.63;;;;;;;5.87;100.00;100548.84;5018233;28;20175;-75
2021/05/02 04:26:32;;;;;;;32.77;24.07;;;;;;;5.94;100.00;100548.69;5051731;28;20794;-76
2021/05/02 04:29:01;;;;;;;33.50;25.43;;;;;;;5.98;100.00;100556.03;5034778;28;20201;-76
2021/05/02 04:31:29;;;;;;;38.43;26.27;;;;;;;6.10;100.00;100556.78;5023081;28;20718;-76
2021/05/02 04:33:54;;;;;;;33.10;24.83;;;;;;;6.26;100.00;100558.63;5030204;28;20196;-77
2021/05/02 04:36:20;;;;;;;34.20;24.90;;;;;;;6.41;100.00;100556.16;5024716;28;20231;-76
2021/05/02 04:38:46;;;;;;;31.73;24.30;;;;;;;6.31;100.00;100558.72;5051363;28;20234;-77
2021/05/02 04:41:12;;;;;;;30.30;24.73;;;;;;;6.64;100.00;100560.28;5033596;28;20226;-76
2021/05/02 04:43:37;;;;;;;32.17;24.23;;;;;;;6.73;100.00;100550.69;5051161;28;20309;-75
2021/05/02 04:46:07;;;;;;;32.87;23.53;;;;;;;6.79;100.00;100556.97;5049943;28;20238;-75
2021/05/02 04:48:37;;;;;;;28.40;23.07;;;;;;;6.81;100.00;100566.44;5051277;28;20184;-75
2021/05/02 04:51:03;;;;;;;25.60;22.13;;;;;;;6.85;100.00;100575.69;5033222;28;20283;-76
2021/05/02 04:53:34;;;;;;;24.40;20.70;;;;;;;6.82;100.00;100578.88;5017064;28;20585;-76
2021/05/02 04:56:02;;;;;;;24.70;20.27;;;;;;;7.01;100.00;100572.13;5025573;28;20432;-76
2021/05/02 04:58:30;;;;;;;23.23;19.80;;;;;;;6.89;100.00;100568.72;5014442;28;20797;-76
2021/05/02 05:00:58;;;;;;;23.23;19.23;;;;;;;6.88;100.00;100569.78;5049775;28;20639;-75
2021/05/02 05:03:27;;;;;;;22.97;19.30;;;;;;;6.97;100.00;100581.78;5033687;28;20280;-76
2021/05/02 05:05:52;;;;;;;23.50;19.10;;;;;;;7.01;100.00;100582.91;5026417;28;20251;-76
2021/05/02 05:08:20;;;;;;;24.00;19.40;;;;;;;7.07;100.00;100579.19;4998127;28;20833;-76
2021/05/02 05:10:51;;;;;;;23.07;19.40;;;;;;;7.13;100.00;100576.31;5002169;28;20233;-76
2021/05/02 05:13:19;;;;;;;23.10;18.90;;;;;;;7.28;100.00;100578.41;5033557;28;20216;-77
2021/05/02 05:15:50;;;;;;;20.27;18.07;;;;;;;7.16;100.00;100586.63;5027127;28;20228;-77
2021/05/02 05:18:18;;;;;;;22.07;19.07;;;;;;;6.93;100.00;100596.84;5013778;28;20184;-77
2021/05/02 05:20:43;;;;;;;20.60;17.77;;;;;;;7.07;100.00;100595.41;5033053;28;20221;-78
2021/05/02 05:23:09;;;;;;;22.50;18.43;;;;;;;7.20;100.00;100592.31;5016564;28;20180;-77
2021/05/02 05:25:39;;;;;;;20.77;17.80;;;;;;;7.24;100.00;100598.88;5016299;28;20223;-76
2021/05/02 05:28:10;;;;;;;20.77;17.40;;;;;;;6.79;100.00;100600.16;5049954;28;20366;-77
2021/05/02 05:30:36;;;;;;;18.70;16.80;;;;;;;6.92;100.00;100601.44;5032855;28;20223;-77
2021/05/02 05:33:06;;;;;;;19.90;17.80;;;;;;;7.02;100.00;100598.06;5050921;28;20206;-77
2021/05/02 05:35:37;;;;;;;21.03;17.73;;;;;;;7.25;100.00;100605.91;5012646;28;20216;-76
2021/05/02 05:38:05;;;;;;;23.83;19.03;;;;;;;7.46;100.00;100593.19;5014018;28;20201;-76
2021/05/02 05:40:30;;;;;;;20.27;17.87;;;;;;;7.54;100.00;100608.94;5049372;28;20211;-77
2021/05/02 05:43:02;;;;;;;18.67;16.67;;;;;;;7.27;100.00;100610.00;5017303;28;20183;-77
2021/05/02 05:45:28;;;;;;;19.20;16.77;;;;;;;7.32;100.00;100607.34;5049533;28;20760;-76
2021/05/02 05:47:54;;;;;;;18.60;16.10;;;;;;;7.24;100.00;100606.97;5034153;28;20227;-77
2021/05/02 05:50:23;;;;;;;18.57;16.40;;;;;;;7.17;100.00;100604.44;5049745;28;20179;-77
2021/05/02 05:52:49;;;;;;;18.10;15.27;;;;;;;7.24;100.00;100615.09;5033047;28;20669;-76
2021/05/02 05:55:15;;;;;;;18.43;15.73;;;;;;;7.34;100.00;100606.03;5016794;28;20843;-78
2021/05/02 05:57:51;;;;;;;18.10;15.63;;;;;;;7.57;100.00;100610.34;5049835;28;20301;-77
2021/05/02 06:00:23;;;;;;;16.43;14.83;;;;;;;7.60;100.00;100610.66;5048825;28;20204;-77
2021/05/02 06:02:49;;;;;;;16.90;15.10;;;;;;;7.68;100.00;100607.47;5048732;28;20593;-76
2021/05/02 06:05:17;;;;;;;16.57;14.63;;;;;;;7.67;100.00;100609.38;5032077;28;20257;-77
2021/05/02 06:07:45;;;;;;;15.67;14.07;;;;;;;7.67;100.00;100606.69;5017414;28;20213;-77
2021/05/02 06:10:12;;;;;;;15.40;13.50;;;;;;;7.93;100.00;100608.56;5032340;28;20269;-76
2021/05/02 06:12:40;;;;;;;15.50;13.90;;;;;;;8.20;100.00;100612.88;5031957;28;20270;-77
2021/05/02 06:15:06;;;;;;;14.77;13.27;;;;;;;7.99;100.00;100614.84;4998523;28;20223;-76
2021/05/02 06:17:34;;;;;;;14.30;12.80;;;;;;;7.93;100.00;100615.84;4999924;28;20183;-76
2021/05/02 06:20:02;;;;;;;14.63;13.13;;;;;;;8.10;100.00;100612.78;5032619;28;20194;-76
2021/05/02 06:22:27;;;;;;;14.27;12.80;;;;;;;8.42;100.00;100615.50;5039193;28;20285;-77
2021/05/02 06:24:53;;;;;;;13.77;12.27;;;;;;;8.48;100.00;100610.69;5000894;28;20187;-77
2021/05/02 06:27:19;;;;;;;14.97;12.87;;;;;;;8.45;100.00;100615.78;5029625;28;20236;-77
2021/05/02 06:29:44;;;;;;;13.57;12.27;;;;;;;8.02;100.00;100614.28;4996701;28;20196;-76
2021/05/02 06:32:15;;;;;;;14.33;12.83;;;;;;;8.07;100.00;100624.09;5013828;28;20362;-76
2021/05/02 06:34:40;;;;;;;13.73;12.33;;;;;;;8.44;100.00;100627.69;4980715;28;20219;-77
2021/05/02 06:37:08;;;;;;;16.90;13.53;;;;;;;8.31;100.00;100625.41;5029188;28;20235;-76
2021/05/02 06:39:40;;;;;;;14.20;12.70;;;;;;;8.17;100.00;100628.81;5032761;28;20187;-76
2021/05/02 06:42:08;;;;;;;14.60;13.10;;;;;;;8.17;100.00;100624.22;5015457;28;20220;-75
2021/05/02 06:44:34;;;;;;;13.43;12.13;;;;;;;8.19;100.00;100627.50;5032425;28;20179;-77
2021/05/02 06:47:02;;;;;;;14.27;12.77;;;;;;;8.77;100.00;100624.66;5011608;28;20769;-76
2021/05/02 06:49:30;;;;;;;13.93;12.53;;;;;;;8.65;100.00;100624.06;5029241;28;20184;-76
2021/05/02 06:51:58;;;;;;;12.67;11.37;;;;;;;8.41;100.00;100625.50;4983722;28;20624;-77
2021/05/02 06:54:26;;;;;;;14.00;11.50;;;;;;;8.64;100.00;100630.53;5030479;28;20270;-76
2021/05/02 06:56:54;;;;;;;12.50;11.03;;;;;;;8.49;100.00;100623.13;5044419;28;20246;-75
2021/05/02 06:59:19;;;;;;;12.70;11.50;;;;;;;8.50;100.00;100626.66;5015933;28;20272;-77
2021/05/02 07:01:45;;;;;;;13.93;12.30;;;;;;;8.90;100.00;100630.44;4985635;28;20775;-80
2021/05/02 07:04:10;;;;;;;13.27;11.87;;;;;;;9.15;100.00;100634.09;4980130;28;20196;-77
2021/05/02 07:06:36;;;;;;;12.27;10.93;;;;;;;9.04;100.00;100631.63;5008262;28;20267;-77
2021/05/02 07:09:03;;;;;;;13.23;11.60;;;;;;;8.97;100.00;100631.88;5015973;28;20576;-77
2021/05/02 07:11:31;;;;;;;12.87;11.53;;;;;;;9.31;100.00;100633.09;5037712;28;20285;-77
2021/05/02 07:13:59;;;;;;;12.83;11.23;;;;;;;9.17;100.00;100639.25;5032154;28;20188;-78
2021/05/02 07:16:25;;;;;;;10.80;9.70;;;;;;;9.02;100.00;100642.69;4991648;28;20220;-77
2021/05/02 07:18:56;;;;;;;10.67;9.63;;;;;;;9.28;100.00;100639.84;5033017;28;20199;-76
2021/05/02 07:21:22;;;;;;;11.87;10.67;;;;;;;9.58;100.00;100634.56;5026342;28;20227;-77
2021/05/02 07:23:49;;;;;;;11.73;10.20;;;;;;;9.74;100.00;100642.50;5019448;28;20895;-75
2021/05/02 07:26:20;;;;;;;10.07;9.10;;;;;;;9.61;100.00;100634.84;4994108;28;20227;-76
2021/05/02 07:28:50;;;;;;;10.23;8.93;;;;;;;9.32;100.00;100650.97;5016651;28;20181;-77
2021/05/02 07:31:16;;;;;;;10.10;9.10;;;;;;;8.56;100.00;100652.69;5036254;28;20826;-77
2021/05/02 07:33:44;;;;;;;10.17;9.03;;;;;;;8.91;100.00;100651.84;5036051;28;20180;-76
2021/05/02 07:36:10;;;;;;;11.10;9.43;;;;;;;9.35;100.00;100655.88;5011391;28;20255;-76
2021/05/02 07:38:36;;;;;;;10.37;9.23;;;;;;;9.20;100.00;100658.53;5016596;28;20193;-77
2021/05/02 07:41:04;;;;;;;10.40;9.40;;;;;;;9.53;100.00;100650.00;5033285;28;20211;-77
2021/05/02 07:43:32;;;;;;;9.63;8.63;;;;;;;9.46;100.00;100647.53;5023119;28;20188;-76
2021/05/02 07:46:01;;;;;;;10.53;9.37;;;;;;;9.97;100.00;100650.16;5031983;28;20231;-76
2021/05/02 07:48:29;;;;;;;9.70;8.70;;;;;;;9.61;100.00;100644.88;5032731;28;20188;-76
2021/05/02 07:50:54;;;;;;;10.30;9.30;;;;;;;9.35;100.00;100651.28;4977728;28;20572;-74
2021/05/02 07:53:30;;;;;;;9.57;8.67;;;;;;;10.06;100.00;100648.56;4994880;28;20271;-75
2021/05/02 07:55:55;;;;;;;10.03;8.73;;;;;;;10.63;100.00;100639.88;5052157;28;20735;-74
2021/05/02 07:58:23;;;;;;;8.57;7.63;;;;;;;10.43;97.97;100645.31;5018394;28;20196;-76
2021/05/02 08:00:49;;;;;;;8.00;7.20;;;;;;;10.43;96.14;100652.66;5030162;28;20607;-77
2021/05/02 08:03:16;;;;;;;7.97;7.17;;;;;;;11.02;95.22;100643.63;5031006;28;20176;-75
2021/05/02 08:05:42;;;;;;;8.17;7.43;;;;;;;10.56;93.34;100654.84;5028794;28;20232;-76
2021/05/02 08:08:10;;;;;;;10.13;8.93;;;;;;;10.88;92.99;100648.81;4996626;28;20181;-77
2021/05/02 08:10:35;;;;;;;8.90;8.10;;;;;;;10.97;92.42;100662.66;5009697;28;20224;-76
2021/05/02 08:13:03;;;;;;;8.40;7.60;;;;;;;10.54;92.67;100652.38;5014275;28;20172;-77
2021/05/02 08:15:29;;;;;;;8.37;7.57;;;;;;;10.69;94.94;100654.28;5015866;28;20749;-76
2021/05/02 08:18:01;;;;;;;7.50;6.67;;;;;;;10.32;94.43;100663.78;5036595;28;20177;-77
2021/05/02 08:20:32;;;;;;;8.60;7.03;;;;;;;10.37;95.89;100663.81;5005214;28;20227;-75
2021/05/02 08:23:00;;;;;;;8.23;7.13;;;;;;;10.68;93.62;100658.91;5012684;28;20212;-76
2021/05/02 08:25:28;;;;;;;8.33;7.33;;;;;;;10.58;93.41;100658.88;5010167;28;20258;-74
2021/05/02 08:27:53;;;;;;;9.33;7.57;;;;;;;10.75;93.01;100659.44;5047347;28;20261;-75
2021/05/02 08:30:21;;;;;;;7.87;7.00;;;;;;;10.30;92.92;100677.63;5032914;28;20215;-75
2021/05/02 08:32:49;;;;;;;7.50;6.80;;;;;;;10.45;91.54;100674.94;5047638;28;20591;-77
2021/05/02 08:35:15;;;;;;;8.67;7.77;;;;;;;10.43;94.18;100677.91;5032613;28;20240;-78
2021/05/02 08:37:46;;;;;;;8.00;7.20;;;;;;;10.63;94.38;100672.47;5017100;28;20195;-78
2021/05/02 08:40:12;;;;;;;7.30;5.90;;;;;;;10.08;92.73;100668.09;5032896;28;20251;-76
2021/05/02 08:42:40;;;;;;;7.77;7.07;;;;;;;9.86;93.96;100681.03;5034487;28;20195;-75
2021/05/02 08:45:06;;;;;;;6.60;5.87;;;;;;;9.70;94.42;100682.06;5036396;28;20207;-77
2021/05/02 08:47:35;;;;;;;7.57;6.57;;;;;;;10.06;92.64;100670.28;5035765;28;20632;-78
2021/05/02 08:50:08;;;;;;;7.70;6.90;;;;;;;10.36;94.94;100681.97;5035970;28;20183;-77
2021/05/02 08:52:36;;;;;;;7.33;6.63;;;;;;;10.10;92.46;100677.59;5018046;28;20268;-76
2021/05/02 08:55:06;;;;;;;7.37;6.67;;;;;;;10.24;93.37;100691.47;5034726;28;20203;-76
2021/05/02 08:57:38;;;;;;;8.57;7.40;;;;;;;10.46;90.91;100687.44;5053654;28;20682;-79
2021/05/02 09:00:07;;;;;;;7.80;7.00;;;;;;;10.13;92.79;100687.13;5021791;28;20841;-79
2021/05/02 09:02:34;;;;;;;8.20;7.40;;;;;;;10.13;90.59;100678.97;5036650;28;20219;-77
2021/05/02 09:05:09;;;;;;;8.03;7.20;;;;;;;9.99;91.99;100685.97;5034140;28;20184;-76
2021/05/02 09:07:44;;;;;;;8.13;7.33;;;;;;;10.37;89.61;100689.84;5031744;28;20290;-75
2021/05/02 09:10:13;;;;;;;8.73;6.97;;;;;;;10.80;88.85;100675.72;5013808;28;20684;-77
2021/05/02 09:12:39;;;;;;;7.57;6.87;;;;;;;11.08;88.46;100667.00;5013541;28;20191;-77
2021/05/02 09:15:18;;;;;;;8.07;7.33;;;;;;;11.06;85.70;100667.28;4997737;28;20243;-76
2021/05/02 09:18:00;;;;;;;9.10;7.20;;;;;;;10.86;85.46;100674.63;5031420;28;20191;-75
2021/05/02 09:20:44;;;;;;;9.00;7.30;;;;;;;11.19;87.17;100672.97;4999528;28;20188;-74
2021/05/02 09:23:10;;;;;;;7.93;7.13;;;;;;;11.01;83.96;100674.63;5013527;28;20230;-75
2021/05/02 09:25:47;;;;;;;8.20;7.40;;;;;;;11.00;84.66;100673.00;5029985;28;20231;-77
2021/05/02 09:28:12;;;;;;;8.80;7.60;;;;;;;11.83;79.44;100668.38;5008456;28;20172;-78
2021/05/02 09:30:38;;;;;;;8.63;7.80;;;;;;;12.07;80.80;100656.56;5018575;28;20241;-76
2021/05/02 09:33:09;;;;;;;8.07;7.27;;;;;;;11.49;79.68;100653.84;5049416;28;20313;-78
2021/05/02 09:35:37;;;;;;;7.83;7.13;;;;;;;11.16;81.87;100672.69;5027620;28;20224;-76
2021/05/02 09:38:16;;;;;;;7.70;7.00;;;;;;;11.66;79.60;100652.41;5046703;28;20894;-76
2021/05/02 09:40:44;;;;;;;8.87;7.70;;;;;;;12.48;77.40;100650.53;5022039;28;20235;-75
2021/05/02 09:43:30;;;;;;;7.47;6.77;;;;;;;12.28;74.31;100650.69;4998434;28;20203;-76
2021/05/02 09:46:34;;;;;;;8.10;7.30;;;;;;;11.37;79.29;100664.22;5016170;28;20826;-75
2021/05/02 09:49:08;;;;;;;8.27;7.53;;;;;;;11.38;79.33;100644.06;5001464;28;20188;-77
2021/05/02 09:51:37;;;;;;;8.07;7.37;;;;;;;11.14;78.31;100659.38;5014730;28;20216;-77
2021/05/02 09:54:09;;;;;;;8.80;7.93;;;;;;;11.47;79.34;100658.75;4996668;28;20252;-78
2021/05/02 09:56:58;;;;;;;8.63;7.83;;;;;;;12.14;76.26;100654.31;5011985;28;20251;-76
2021/05/02 09:59:32;;;;;;;9.10;8.20;;;;;;;11.83;77.46;100660.22;5002852;28;20180;-75
2021/05/02 10:02:12;;;;;;;8.93;8.13;;;;;;;12.31;74.34;100655.56;5000207;28;20274;-75
2021/05/02 10:04:44;;;;;;;9.73;8.47;;;;;;;12.07;73.74;100668.25;5033153;28;20195;-76
2021/05/02 10:07:14;;;;;;;9.23;8.00;;;;;;;11.94;75.04;100660.72;4999131;28;20228;-76
2021/05/02 10:09:42;;;;;;;8.47;7.60;;;;;;;11.35;77.25;100666.38;5014626;28;20531;-76
2021/05/02 10:12:13;;;;;;;8.70;7.80;;;;;;;12.18;74.95;100663.53;5031717;28;20230;-76
2021/05/02 10:14:39;;;;;;;7.60;7.00;;;;;;;12.46;73.97;100666.34;5001641;28;20184;-75
2021/05/02 10:17:05;;;;;;;7.37;6.67;;;;;;;12.68;70.99;100655.81;4983319;28;20645;-75
2021/05/02 10:19:33;;;;;;;6.83;6.23;;;;;;;12.55;69.04;100651.03;4997617;28;20556;-76
2021/05/02 10:22:00;;;;;;;7.37;6.70;;;;;;;12.26;69.34;100655.59;5029346;28;20293;-76
2021/05/02 10:24:28;;;;;;;6.80;6.20;;;;;;;12.39;70.04;100668.56;4993234;28;20192;-76
2021/05/02 10:26:58;;;;;;;7.33;6.63;;;;;;;12.26;68.83;100652.88;5015098;28;20232;-76
2021/05/02 10:29:29;;;;;;;7.37;6.43;;;;;;;11.84;71.36;100665.38;5012481;28;20234;-77
2021/05/02 10:32:02;;;;;;;7.17;6.50;;;;;;;11.82;72.65;100669.50;5014577;28;20705;-74
2021/05/02 10:34:34;;;;;;;6.90;6.20;;;;;;;12.05;73.26;100656.00;5050828;28;20187;-76
2021/05/02 10:37:22;;;;;;;8.67;7.77;;;;;;;12.49;71.38;100663.03;5044805;28;20252;-77
2021/05/02 10:40:03;;;;;;;6.90;6.20;;;;;;;12.20;69.55;100664.91;5031086;28;20230;-77
2021/05/02 10:42:54;;;;;;;7.00;6.17;;;;;;;12.15;69.51;100662.19;5028429;28;20939;-76
2021/05/02 10:45:37;;;;;;;6.47;5.97;;;;;;;12.84;64.89;100658.16;5025563;28;20216;-77
2021/05/02 10:48:22;;;;;;;6.17;5.57;;;;;;;12.29;67.05;100658.56;5041616;28;20576;-76
2021/05/02 10:50:53;;;;;;;6.70;6.10;;;;;;;12.51;69.31;100660.84;5024055;28;20234;-77
2021/05/02 10:53:23;;;;;;;7.73;7.07;;;;;;;12.91;68.72;100664.91;4992552;28;20194;-78
2021/05/02 10:56:15;;;;;;;8.13;6.27;;;;;;;12.90;68.44;100657.81;5020822;28;20262;-77
2021/05/02 10:58:42;;;;;;;7.40;6.50;;;;;;;12.66;69.28;100652.56;5029504;28;20247;-77
2021/05/02 11:01:24;;;;;;;8.07;7.30;;;;;;;12.16;72.04;100663.84;5016507;28;20238;-78
2021/05/02 11:03:52;;;;;;;8.33;7.43;;;;;;;11.14;79.67;100675.69;5011835;28;20684;-76
2021/05/02 11:06:58;;;;;;;9.17;8.20;;;;;;;10.91;92.80;100685.50;5002279;28;20239;-77
2021/05/02 11:09:25;;;;;;;10.23;8.97;;;;;;;10.70;98.89;100689.31;5019014;28;20189;-77
2021/05/02 11:11:55;;;;;;;7.13;6.43;;;;;;;9.92;100.00;100706.31;5018398;28;20255;-76
2021/05/02 11:14:26;;;;;;;8.63;6.47;;;;;;;9.06;100.00;100710.72;4999670;28;20597;-75
2021/05/02 11:16:53;;;;;;;8.53;6.60;;;;;;;8.97;100.00;100709.56;5043398;28;20792;-76
2021/05/02 11:19:22;;;;;;;8.07;7.27;;;;;;;8.98;100.00;100720.16;5044462;28;20283;-78
2021/05/02 11:24:13;;;;;;;10.30;7.90;;;;;;;9.03;100.00;100712.06;5037504;28;20183;-79
2021/05/02 11:26:57;;;;;;;9.07;8.17;;;;;;;9.61;100.00;100705.38;5034320;28;20219;-77
2021/05/02 11:29:26;;;;;;;9.53;8.63;;;;;;;9.78;100.00;100700.53;5019790;28;20207;-77